Report METAR

 

Warning: fopen(./cache/metarcache-KSJC.txt): failed to open stream: No such file or directory in /web/htdocs/www.oristanometeo.com/home/get-metar-conditions-inc.php on line 195 Warning: fopen(./cache/metarcache-KNUQ.txt): failed to open stream: No such file or directory in /web/htdocs/www.oristanometeo.com/home/get-metar-conditions-inc.php on line 195 Warning: fopen(./cache/metarcache-KPAO.txt): failed to open stream: No such file or directory in /web/htdocs/www.oristanometeo.com/home/get-metar-conditions-inc.php on line 195 Warning: fopen(./cache/metarcache-KRHV.txt): failed to open stream: No such file or directory in /web/htdocs/www.oristanometeo.com/home/get-metar-conditions-inc.php on line 195 Warning: fopen(./cache/metarcache-KOAK.txt): failed to open stream: No such file or directory in /web/htdocs/www.oristanometeo.com/home/get-metar-conditions-inc.php on line 195 Warning: fopen(./cache/metarcache-KSQL.txt): failed to open stream: No such file or directory in /web/htdocs/www.oristanometeo.com/home/get-metar-conditions-inc.php on line 195 Warning: fopen(./cache/metarcache-KSFO.txt): failed to open stream: No such file or directory in /web/htdocs/www.oristanometeo.com/home/get-metar-conditions-inc.php on line 195 Warning: fopen(./cache/metarcache-KE16.txt): failed to open stream: No such file or directory in /web/htdocs/www.oristanometeo.com/home/get-metar-conditions-inc.php on line 195 Warning: fopen(./cache/metarcache-KWVI.txt): failed to open stream: No such file or directory in /web/htdocs/www.oristanometeo.com/home/get-metar-conditions-inc.php on line 195 Warning: fopen(./cache/metarcache-KHAF.txt): failed to open stream: No such file or directory in /web/htdocs/www.oristanometeo.com/home/get-metar-conditions-inc.php on line 195 Warning: fopen(./cache/metarcache-KHWD.txt): failed to open stream: No such file or directory in /web/htdocs/www.oristanometeo.com/home/get-metar-conditions-inc.php on line 195 Warning: fopen(./cache/metarcache-KLVK.txt): failed to open stream: No such file or directory in /web/htdocs/www.oristanometeo.com/home/get-metar-conditions-inc.php on line 195
KSJC - San Jose, California, USA
Distance from station: NE 14km
Dati ricevuti: 17/05/2022 08:53
Sereno
Sereno
 Vento da N
Vento: N 11 km/h
Temperatura: 13°C
P.to Rugiada: 7°C
Umidità: 67%
Barometro: 1017.3 hPa
Nuvole: Sereno
Visibility: 16 km
2022/05/17 06:53 KSJC 170653Z 36006KT 10SM CLR 13/07 A3004 RMK AO2 SLP173 T01330072 $
KNUQ - Moffett Nas/Mtn, California, USA
Distance from station: N 14km
Dati ricevuti: 17/05/2022 08:35
Sereno
Sereno
 Vento da NNO
Vento: NNO 11 km/h
Temperatura: 12°C
P.to Rugiada: 7°C
Umidità: 72%
Barometro: 1017.3 hPa
Nuvole: Sereno
Visibility: 16 km
2022/05/17 06:35 KNUQ 170635Z AUTO 33006KT 10SM CLR 12/07 A3004 RMK AO2
KPAO - Palo Alto, California, USA
Distance from station: NNO 23km
Dati ricevuti: 17/05/2022 05:47
DATI Obsoleti
Few Clouds
Few Clouds
 Vento da O
Vento: O 17 km/h
Temperatura: 14°C
P.to Rugiada: 7°C
Umidità: 63%
Barometro: 1017.3 hPa
Nuvole: Few Clouds
Visibility: 16 km
Cloud details: Few Clouds 610 m
2022/05/17 03:47 KPAO 170347Z 28009KT 10SM FEW020 14/07 A3004 RMK LAST
 
KRHV - San Jose/Reid, California, USA
Distance from station: ENE 19km
Dati ricevuti: 17/05/2022 03:47
DATI Obsoleti
Molto nuvoloso
Molto nuvoloso
 Vento da NO
Vento: NO 20 km/h
Temperatura: 18°C
P.to Rugiada: 8°C
Umidità: 52%
Barometro: 1017.3 hPa
Nuvole: Molto nuvoloso
Visibility: 16 km
Cloud details: Molto nuvoloso 3658 m
2022/05/17 01:47 KRHV 170147Z 32011KT 10SM BKN120 18/08 A3004
KOAK - Oakland, California, USA
Distance from station: NNO 50km
Dati ricevuti: 17/05/2022 08:53
Sereno
Sereno
 Vento da SO
Vento: SO 19 km/h
Temperatura: 12°C
P.to Rugiada: 8°C
Umidità: 77%
Barometro: 1017.6 hPa
Nuvole: Sereno
Visibility: 16 km
2022/05/17 06:53 KOAK 170653Z 23010KT 10SM CLR 12/08 A3005 RMK AO2 SLP174 T01170083
KSQL - San Carlos Airpo, California, USA
Distance from station: NO 34km
Dati ricevuti: 17/05/2022 08:35
Sereno
Sereno
 Vento da O
Vento: O 11 km/h
Temperatura: 12°C
P.to Rugiada: 8°C
Umidità: 77%
Barometro: 1017.6 hPa
Nuvole: Sereno
Visibility: 16 km
2022/05/17 06:35 KSQL 170635Z AUTO 26006KT 10SM CLR 12/08 A3005 RMK AO2
 
KSFO - San Francisco, California, USA
Distance from station: NO 49km
Dati ricevuti: 17/05/2022 07:56
Few Clouds
Few Clouds
 Vento da O
Vento: O 35 km/h, Raffica: 50 km/h
Temperatura: 12°C
P.to Rugiada: 8°C
Umidità: 77%
Barometro: 1016.9 hPa
Nuvole: Few Clouds
Visibility: 16 km
Cloud details: Few Clouds 6096 m
2022/05/17 05:56 KSFO 170556Z 28019G27KT 10SM FEW200 12/08 A3003 RMK AO2 PK WND 28029/0512 SLP169 T01220078 10156 20117 50003
KE16 - San Martin, California, USA
Distance from station: ESE 43km
Dati ricevuti: 17/05/2022 08:35
Sereno
Sereno
 Vento da SE
Vento: SE 9 km/h
Temperatura: 12°C
P.to Rugiada: 7°C
Umidità: 72%
Barometro: 1017.9 hPa
Nuvole: Sereno
Visibility: 16 km
2022/05/17 06:35 KE16 170635Z AUTO 14005KT 10SM CLR 12/07 A3006 RMK AO2 PWINO PNO
KWVI - Watsonville, California, USA
Distance from station: SSE 44km
Dati ricevuti: 17/05/2022 08:53
Sereno
Sereno
 Vento da calmo
Vento: Calma
Temperatura: 10°C
P.to Rugiada: 8°C
Umidità: 88%
Barometro: 1017.9 hPa
Nuvole: Sereno
Visibility: 16 km
2022/05/17 06:53 KWVI 170653Z AUTO 00000KT 10SM CLR 10/08 A3006 RMK AO2 SLP179 T01000083
 
KHAF - Half Moon Bay, California, USA
Distance from station: ONO 50km
Dati ricevuti: 17/05/2022 08:35
Mist, Coperto
Mist, Coperto
 Vento da NNO
Vento: NNO 17 km/h
Temperatura: 10°C
Temperatura Vento: 8°C
P.to Rugiada: 10°C
Umidità: 100%
Barometro: 1017.9 hPa
Summary: Mist
Nuvole: Coperto
Visibility: 8 km
Cloud details: Coperto 396 m
2022/05/17 06:35 KHAF 170635Z AUTO 33009KT 310V010 5SM BR OVC013 10/10 A3006 RMK AO2
KHWD - Hayward, California, USA
Distance from station: N 44km
Dati ricevuti: 17/05/2022 08:54
Sereno
Sereno
 Vento da SO
Vento: SO 15 km/h
Temperatura: 12°C
P.to Rugiada: 9°C
Umidità: 82%
Barometro: 1016.9 hPa
Nuvole: Sereno
Visibility: 16 km
2022/05/17 06:54 KHWD 170654Z 22008KT 10SM CLR 12/09 A3003 RMK AO2 SLP179 T01170089
KLVK - Livermore, California, USA
Distance from station: NNE 51km
Dati ricevuti: 17/05/2022 08:53
Sereno
Sereno
 Vento da NNO
Vento: NNO 7 km/h
Temperatura: 11°C
P.to Rugiada: 8°C
Umidità: 82%
Barometro: 1016.6 hPa
Nuvole: Sereno
Visibility: 16 km
2022/05/17 06:53 KLVK 170653Z AUTO 34004KT 10SM CLR 11/08 A3002 RMK AO2 SLP164 T01060078